Sutherland, Virginia
Current Conditions -  °F | °C
As of 9:15 AM on Friday 28 Nov 2014 (Local Time) from KPTB Reporting Station
Clear Clear  
Wind Chill: 31°   Ceiling: Unl
Heat Index: 37°   Visibility: 10mi
Dew Point: 24°   Wind: 7mph
Humidity: 60%   Direction: 310°NW
Pressure: 30.34"   Gusts: NA
Location:  37.2°N, 77.54°W
Report Text: KPTB 281415Z AUTO 31006KT 10SM CLR 03/M04 A3034 RMK AO2 T00271044
Loading
Personal Weather Stations






























Interactive Weather Map New forecast layout! Learn more

10-Day Weather Forecast

Advertisements
Track Severe Weather on mobile